Main page
METAR-TAF:

METAR-TAF

Airports :

Esfahān, Iran

Isfahan International Airport

latitude: 32-28N, longitude: 051-43E, elevation: 1590 m

Current weather observation

The report was made 29 minutes ago, at 14:00 UTC
Wind 6 kt from the South/Southeast
Temperature 6°C
Humidity 56%
Pressure 1021 hPa
Visibility 10 km or more
no clouds below 1500 m and no cumulonimbus

METAR: OIFM 211400Z 15006KT CAVOK 06/M02 Q1021 A3015

Time: 17:59 (14:29 UTC)

Forecast

The report was made 3 hours and 29 minutes ago, at 11:00 UTC
Forecast valid from 21 at 12 UTC to 22 at 18 UTC
Wind 8 kt from the East/Northeast
Visibility: 7000 m
Temporary
from 21 at 12 UTC to 21 at 15 UTC
Wind 12 kt from the Northwest
Becoming
from 22 at 02 UTC to 22 at 04 UTC
Visibility: 4000 m
haze
Becoming
from 22 at 06 UTC to 22 at 08 UTC
Visibility: 7000 m

TAF: OIFM 211100Z 2112/2218 06004MPS 7000 NSC TEMPO 2112/2115 32006MPS BECMG 2202/2204 4000 HZ BECMG 2206/2208 7000 NSC

Weather observations and forecasts of more than 4000 airports (METAR and TAF reports).

The available stations are represented by yellow and red dots on the map.

Hover mouse over dot to see the name of the station.

Then click to see weather observations and forecasts.

To change the map : click on the green buttons with a black cross to zoom in, on the green button with a dash to zoom out, or on the green arrows for adjacent maps.


METAR-TAF: